Latest Weather Observations for Devonport Airport

IDT60801

Issued at 2:05 pm EST Sunday 31 August 2014 (issued every 30 minutes, with the page automatically refreshed every 10 minutes)

About weather observations | Map of weather stations | Latest weather observations for TAS | Other Formats
Station Details ID: 091126 Name: DEVONPORT AIRPORT Lat: -41.17 Lon: 146.43 Height: 8.0 m
Data from the previous 72 hours. | See also: Recent months at Devonport Airport
Date/Time
EST
Temp
°C
App
Temp
°C
Dew
Point
Rel
Hum
%
Delta-T
°C
Wind Press
QNH
hPa
Press
MSL
hPa
Rain
since 9 am
mm
Dir
 
Spd
km/h
Gust
km/h
Spd
kts
Gust
kts
31/02:00pm 14.0 10.8 11.3 84 1.4 NE 19 20 10 11 1015.6 1015.7 0.0
31/01:30pm 14.2 11.0 11.4 83 1.5 NE 19 22 10 12 1015.9 1016.0 0.0
31/01:00pm 14.1 10.7 11.4 84 1.4 NE 20 24 11 13 1016.3 1016.4 0.0
31/12:30pm 14.1 10.4 11.4 84 1.4 NE 22 26 12 14 1016.8 1016.9 0.0
31/12:00pm 14.0 10.7 11.5 85 1.3 NE 20 24 11 13 1017.4 1017.5 0.0
31/11:30am 13.7 10.3 11.4 86 1.2 ENE 20 24 11 13 1017.8 1017.9 0.0
31/11:00am 13.2 10.0 11.1 87 1.1 ENE 19 22 10 12 1018.3 1018.3 0.0
31/10:41am 12.9 10.3 10.8 87 1.1 ENE 15 19 8 10 1018.6 1018.6 0.0
31/10:30am 12.9 10.4 11.0 88 1.0 ENE 15 20 8 11 1018.7 1018.7 0.0
31/10:00am 12.0 10.0 10.1 88 1.0 S 11 13 6 7 1019.1 1019.1 0.0
31/09:35am 11.8 10.1 9.9 88 1.0 SSE 9 13 5 7 1019.4 1019.4 0.0
31/09:30am 11.7 9.6 9.8 88 1.0 SSE 11 13 6 7 1019.4 1019.4 0.0
31/09:00am 11.1 8.9 9.5 90 0.8 S 11 13 6 7 1019.5 1019.5 0.0
31/08:30am 10.5 8.2 8.9 90 0.8 SSE 11 13 6 7 1019.7 1019.7 0.0
31/08:00am 10.1 7.7 8.5 90 0.8 SSE 11 13 6 7 1019.8 1019.8 0.0
31/07:30am 9.7 7.2 8.1 90 0.8 SSE 11 15 6 8 1019.9 1019.9 0.0
31/07:00am 9.6 7.4 8.0 90 0.8 S 9 11 5 6 1019.9 1019.9 0.0
31/06:30am 9.7 7.2 8.1 90 0.8 S 11 11 6 6 1019.8 1019.8 0.0
31/06:00am 9.6 6.7 8.0 90 0.8 SSE 13 15 7 8 1019.8 1019.8 0.0
31/05:30am 9.6 7.4 8.0 90 0.8 SSE 9 11 5 6 1020.0 1020.0 0.0
31/05:00am 9.3 6.3 7.7 90 0.8 SSE 13 17 7 9 1019.9 1019.9 0.0
31/04:30am 9.1 6.1 7.5 90 0.8 SSE 13 17 7 9 1020.0 1020.0 0.0
31/04:00am 8.9 5.5 7.5 91 0.7 S 15 17 8 9 1020.2 1020.2 0.0
31/03:30am 9.3 6.0 7.9 91 0.7 SSE 15 17 8 9 1020.6 1020.6 0.0
31/03:00am 9.0 5.6 7.5 90 0.7 SSE 15 17 8 9 1020.9 1020.9 0.0
31/02:30am 8.8 5.7 7.4 91 0.7 SSE 13 17 7 9 1021.5 1021.5 0.0
31/02:00am 8.2 4.6 6.8 91 0.6 SSE 15 19 8 10 1022.1 1022.1 0.0
31/01:30am 7.9 4.3 6.7 92 0.6 S 15 17 8 9 1022.4 1022.4 0.0
31/01:00am 7.1 2.9 5.9 92 0.5 S 17 19 9 10 1022.5 1022.5 0.0
31/12:30am 6.8 2.5 5.4 91 0.6 S 17 19 9 10 1022.6 1022.6 0.0
31/12:00am 7.0 2.8 5.6 91 0.6 S 17 19 9 10 1022.6 1022.6 0.0
 
Date/Time
EST
Temp
°C
App
Temp
°C
Dew
Point
Rel
Hum
%
Delta-T
°C
Wind Press
QNH
hPa
Press
MSL
hPa
Rain
since 9 am
mm
Dir
 
Spd
km/h
Gust
km/h
Spd
kts
Gust
kts
30/11:30pm 7.3 3.1 5.8 90 0.7 S 17 22 9 12 1022.9 1022.9 0.0
30/11:00pm 7.2 3.3 5.5 89 0.8 S 15 19 8 10 1023.5 1023.5 0.0
30/10:30pm 7.8 3.6 5.8 87 0.9 SSE 17 19 9 10 1023.9 1023.9 0.0
30/10:00pm 8.1 4.0 6.4 89 0.8 S 17 19 9 10 1024.5 1024.5 0.0
30/09:30pm 8.4 4.5 6.9 90 0.7 S 17 19 9 10 1024.7 1024.7 0.0
30/09:00pm 8.0 4.7 6.3 89 0.8 SSE 13 17 7 9 1024.7 1024.7 0.0
30/08:30pm 7.9 4.6 6.2 89 0.8 S 13 15 7 8 1024.8 1024.8 0.0
30/08:00pm 8.3 5.0 6.6 89 0.8 SSE 13 15 7 8 1024.8 1024.8 0.0
30/07:30pm 8.2 5.6 6.3 88 0.9 SE 9 11 5 6 1024.7 1024.7 0.0
30/07:00pm 9.1 6.7 7.1 87 0.9 ESE 9 11 5 6 1024.6 1024.6 0.0
30/06:30pm 9.7 7.4 7.5 86 1.0 ESE 9 9 5 5 1024.8 1024.8 0.0
30/06:00pm 10.1 7.8 7.3 83 1.3 E 9 11 5 6 1024.7 1024.7 0.0
30/05:30pm 11.7 8.9 8.4 80 1.6 NE 13 17 7 9 1024.9 1024.9 0.0
30/05:00pm 12.9 9.8 8.8 76 2.0 NE 15 17 8 9 1025.2 1025.2 0.0
30/04:30pm 13.2 10.0 8.5 73 2.3 NE 15 17 8 9 1025.4 1025.4 0.0
30/04:00pm 13.8 10.9 9.5 75 2.2 NE 15 20 8 11 1025.4 1025.4 0.0
30/03:30pm 13.6 10.2 9.1 74 2.3 NE 17 20 9 11 1025.5 1025.5 0.0
30/03:00pm 13.8 10.4 9.3 74 2.3 NE 17 20 9 11 1025.7 1025.7 0.0
30/02:30pm 13.9 10.3 9.7 76 2.2 NNE 19 22 10 12 1026.1 1026.1 0.0
30/02:00pm 14.3 10.7 10.5 78 2.0 NNE 20 22 11 12 1026.2 1026.2 0.0
30/01:30pm 14.0 10.5 11.0 82 1.6 NNE 20 24 11 13 1026.5 1026.5 0.0
30/01:00pm 13.9 10.1 11.1 83 1.5 NE 22 26 12 14 1026.7 1026.7 0.0
30/12:30pm 14.0 10.6 11.2 83 1.5 NE 20 24 11 13 1027.2 1027.2 0.0
30/12:00pm 13.9 11.0 10.9 82 1.6 NE 17 20 9 11 1027.6 1027.6 0.0
30/11:30am 14.1 10.5 10.7 80 1.8 NE 20 24 11 13 1028.0 1028.0 0.0
30/11:00am 13.8 9.8 10.6 81 1.7 NE 22 28 12 15 1028.2 1028.2 0.0
30/10:30am 14.3 11.6 11.6 84 1.4 ENE 17 22 9 12 1028.6 1028.6 0.0
30/10:23am 13.7 10.8 11.0 84 1.4 NE 17 20 9 11 1028.8 1028.8 0.0
30/10:00am 13.6 12.5 12.0 90 0.9 SSE 9 15 5 8 1029.0 1029.0 0.0
30/09:30am 11.1 9.0 9.7 91 0.7 SSE 11 15 6 8 1029.5 1029.5 0.0
30/09:00am 10.4 8.1 9.0 91 0.7 SSE 11 15 6 8 1029.8 1029.8 0.2
30/08:30am 9.8 7.4 8.7 93 0.5 S 11 13 6 7 1029.9 1029.9 0.2
30/08:27am 9.8 7.4 8.7 93 0.5 S 11 15 6 8 1029.9 1029.9 0.2
30/08:00am 9.0 6.0 7.9 93 0.5 S 13 17 7 9 1030.1 1030.1 0.2
30/07:47am 8.5 5.0 7.4 93 0.5 S 15 17 8 9 1030.0 1030.0 0.2
30/07:30am 7.9 5.1 6.8 93 0.5 SSE 11 15 6 8 1029.9 1029.9 0.2
30/07:00am 7.5 3.4 6.4 93 0.5 S 17 20 9 11 1029.7 1029.7 0.2
30/06:30am 7.5 3.5 6.6 94 0.4 S 17 19 9 10 1029.5 1029.5 0.2
30/06:00am 7.2 3.1 6.3 94 0.4 S 17 20 9 11 1029.2 1029.2 0.2
30/05:30am 7.2 3.9 6.3 94 0.4 S 13 17 7 9 1029.3 1029.3 0.2
30/05:00am 7.4 3.4 6.7 95 0.3 S 17 20 9 11 1029.3 1029.3 0.2
30/04:30am 6.9 2.4 6.2 95 0.3 S 19 22 10 12 1029.3 1029.3 0.2
30/04:00am 6.1 2.6 5.4 95 0.3 S 13 19 7 10 1029.3 1029.3 0.0
30/03:30am 5.8 1.5 5.1 95 0.3 S 17 20 9 11 1029.4 1029.4 0.0
30/03:00am 6.3 2.5 5.6 95 0.3 S 15 17 8 9 1029.6 1029.6 0.0
30/02:30am 6.2 2.7 5.5 95 0.3 S 13 17 7 9 1029.9 1029.9 0.0
30/02:00am 6.2 2.3 5.5 95 0.3 S 15 19 8 10 1030.1 1030.1 0.0
30/01:30am 6.9 3.2 6.2 95 0.3 S 15 19 8 10 1030.3 1030.3 0.0
30/01:00am 7.1 3.8 6.4 95 0.3 S 13 17 7 9 1030.4 1030.4 0.0
30/12:30am 7.0 2.9 6.3 95 0.3 S 17 19 9 10 1030.5 1030.5 0.0
30/12:00am 7.9 4.4 7.1 95 0.4 S 15 17 8 9 1030.4 1030.4 0.0
 
Date/Time
EST
Temp
°C
App
Temp
°C
Dew
Point
Rel
Hum
%
Delta-T
°C
Wind Press
QNH
hPa
Press
MSL
hPa
Rain
since 9 am
mm
Dir
 
Spd
km/h
Gust
km/h
Spd
kts
Gust
kts
29/11:30pm 7.5 3.9 6.8 95 0.3 S 15 17 8 9 1030.5 1030.5 0.0
29/11:00pm 7.5 3.9 6.8 95 0.3 S 15 19 8 10 1030.4 1030.4 0.0
29/10:30pm 7.9 4.4 7.0 94 0.4 S 15 17 8 9 1030.5 1030.5 0.0
29/10:00pm 7.9 5.1 7.0 94 0.4 SSE 11 13 6 7 1030.6 1030.6 0.0
29/09:30pm 8.0 5.2 7.1 94 0.4 S 11 13 6 7 1030.5 1030.5 0.0
29/09:00pm 8.4 5.7 7.3 93 0.5 S 11 13 6 7 1030.4 1030.4 0.0
29/08:30pm 9.1 6.9 8.0 93 0.5 S 9 11 5 6 1030.3 1030.3 0.0
29/08:00pm 8.3 5.5 7.1 92 0.6 SSE 11 13 6 7 1030.2 1030.2 0.0
29/07:30pm 9.3 7.2 8.1 92 0.6 S 9 11 5 6 1030.0 1030.0 0.0
29/07:00pm 9.2 7.3 7.6 90 0.8 SSE 7 9 4 5 1030.0 1030.0 0.0
29/06:30pm 10.1 9.7 8.2 88 0.9 CALM 0 0 0 0 1029.9 1029.9 0.0
29/06:00pm 11.8 11.7 9.5 86 1.2 CALM 0 0 0 0 1029.8 1029.8 0.0
29/05:30pm 12.8 12.5 10.2 84 1.3 NNE 2 6 1 3 1029.7 1029.7 0.0
29/05:00pm 13.2 11.7 10.4 83 1.4 NNE 9 9 5 5 1029.5 1029.5 0.0
29/04:30pm 13.5 11.9 10.3 81 1.7 N 9 11 5 6 1029.4 1029.4 0.0
29/04:00pm 13.6 11.7 10.4 81 1.7 N 11 13 6 7 1029.2 1029.2 0.0
29/03:30pm 13.7 11.7 10.3 80 1.8 N 11 15 6 8 1029.2 1029.2 0.0
29/03:00pm 14.0 11.7 10.6 80 1.8 N 13 15 7 8 1029.1 1029.1 0.0
29/02:30pm 14.3 12.1 10.7 79 1.9 N 13 17 7 9 1029.3 1029.3 0.0
29/02:00pm 13.9 11.5 10.1 78 2.0 N 13 15 7 8 1029.5 1029.5 0.0
29/01:30pm 13.8 11.3 9.8 77 2.1 N 13 15 7 8 1029.7 1029.7 0.0
29/01:00pm 14.1 11.7 10.1 77 2.1 N 13 15 7 8 1029.6 1029.6 0.0
29/12:30pm 14.0 12.0 10.0 77 2.1 N 11 15 6 8 1030.0 1030.0 0.0
29/12:00pm 14.3 12.0 10.3 77 2.1 N 13 15 7 8 1030.2 1030.2 0.0
29/11:30am 14.4 12.4 10.2 76 2.2 N 11 13 6 7 1030.3 1030.3 0.0
29/11:00am 14.5 13.6 10.5 77 2.1 SW 6 9 3 5 1030.4 1030.4 0.0
29/10:30am 13.1 11.3 9.4 78 1.9 SSE 9 11 5 6 1030.6 1030.6 0.0
29/10:00am 12.3 9.7 9.3 82 1.5 S 13 15 7 8 1030.7 1030.7 0.0
29/09:30am 11.4 8.7 9.0 85 1.2 S 13 17 7 9 1030.7 1030.7 0.0
29/09:00am 10.7 7.6 9.0 89 0.8 S 15 17 8 9 1030.7 1030.7 0.2
29/08:30am 10.0 6.8 8.6 91 0.7 SSE 15 19 8 10 1030.4 1030.4 0.2
29/08:00am 8.1 4.2 6.9 92 0.6 S 17 20 9 11 1030.4 1030.4 0.2
29/07:30am 7.3 3.6 6.2 93 0.5 S 15 19 8 10 1030.2 1030.2 0.2
29/07:00am 6.8 2.6 5.7 93 0.5 S 17 19 9 10 1029.8 1029.8 0.2
29/06:36am 7.2 3.1 6.3 94 0.4 S 17 19 9 10 1029.6 1029.6 0.2
29/06:30am 7.2 3.5 6.3 94 0.4 S 15 19 8 10 1029.6 1029.6 0.2
29/06:00am 8.0 4.1 7.2 95 0.4 S 17 22 9 12 1029.3 1029.3 0.2
29/05:30am 7.1 3.4 6.4 95 0.3 S 15 17 8 9 1029.2 1029.2 0.2
29/05:00am 7.4 3.8 6.7 95 0.3 S 15 17 8 9 1029.2 1029.2 0.2
29/04:38am 6.6 3.2 5.9 95 0.3 S 13 17 7 9 1029.1 1029.1 0.2
29/04:36am 6.5 2.7 5.8 95 0.3 S 15 17 8 9 1029.1 1029.1 0.2
29/04:30am 6.8 3.4 6.1 95 0.3 S 13 17 7 9 1029.1 1029.1 0.2
29/04:00am 7.3 4.0 6.6 95 0.3 S 13 19 7 10 1028.9 1028.9 0.2
29/03:30am 7.6 3.7 7.0 96 0.3 S 17 20 9 11 1029.0 1029.0 0.2
29/03:00am 6.7 2.9 6.0 95 0.3 S 15 19 8 10 1029.1 1029.1 0.2
29/02:30am 6.9 3.2 6.3 96 0.3 S 15 17 8 9 1029.4 1029.4 0.2
29/02:19am 6.8 3.1 6.1 95 0.3 S 15 17 8 9 1029.4 1029.4 0.2
29/02:00am 7.0 3.7 6.4 96 0.3 S 13 15 7 8 1029.3 1029.3 0.0
29/01:30am 7.0 3.7 6.3 95 0.3 S 13 15 7 8 1029.5 1029.5 0.0
29/01:00am 7.5 4.7 6.8 95 0.3 S 11 13 6 7 1029.6 1029.6 0.0
29/12:30am 7.4 4.2 6.7 95 0.3 S 13 15 7 8 1029.4 1029.4 0.0
29/12:02am 8.2 5.5 7.4 95 0.4 S 11 15 6 8 1029.6 1029.6 0.0
29/12:00am 8.3 5.6 7.5 95 0.4 S 11 15 6 8 1029.6 1029.6 0.0
 
Date/Time
EST
Temp
°C
App
Temp
°C
Dew
Point
Rel
Hum
%
Delta-T
°C
Wind Press
QNH
hPa
Press
MSL
hPa
Rain
since 9 am
mm
Dir
 
Spd
km/h
Gust
km/h
Spd
kts
Gust
kts
28/11:30pm 9.1 6.6 8.3 95 0.4 S 11 15 6 8 1029.7 1029.7 0.0
28/11:00pm 9.0 6.5 8.2 95 0.4 S 11 13 6 7 1029.6 1029.6 0.0
28/10:47pm 8.4 5.8 7.6 95 0.4 S 11 15 6 8 1029.6 1029.6 0.0
28/10:30pm 7.8 4.7 7.1 95 0.3 S 13 15 7 8 1029.6 1029.6 0.0
28/10:00pm 8.3 5.3 7.5 95 0.4 S 13 15 7 8 1029.7 1029.7 0.0
28/09:30pm 8.5 5.5 7.6 94 0.4 S 13 15 7 8 1029.7 1029.7 0.0
28/09:00pm 8.0 4.9 7.1 94 0.4 S 13 13 7 7 1029.6 1029.6 0.0
28/08:30pm 8.9 7.1 7.8 93 0.5 SSE 7 9 4 5 1029.5 1029.5 0.0
28/08:00pm 9.3 7.7 8.2 93 0.5 SE 6 7 3 4 1029.4 1029.4 0.0
28/07:30pm 10.0 8.1 8.9 93 0.5 E 9 11 5 6 1029.1 1029.1 0.0
28/07:00pm 10.1 7.8 8.9 92 0.6 E 11 13 6 7 1029.1 1029.1 0.0
28/06:30pm 10.2 7.8 8.8 91 0.7 E 11 13 6 7 1029.1 1029.1 0.0
28/06:00pm 10.9 8.7 9.3 90 0.8 E 11 11 6 6 1029.0 1029.0 0.0
28/05:30pm 12.2 10.2 10.3 88 1.0 NE 11 15 6 8 1029.0 1029.0 0.0
28/05:00pm 12.9 10.7 10.8 87 1.1 NE 13 17 7 9 1028.6 1028.6 0.0
28/04:30pm 13.6 11.1 11.1 85 1.3 NE 15 17 8 9 1028.6 1028.6 0.0
28/04:00pm 13.6 10.7 11.1 85 1.3 NE 17 20 9 11 1028.4 1028.4 0.0
28/03:30pm 13.9 11.1 11.4 85 1.3 NE 17 19 9 10 1028.6 1028.6 0.0
28/03:00pm 14.3 12.0 11.6 84 1.4 NE 15 19 8 10 1028.7 1028.7 0.0
28/02:30pm 14.0 11.5 11.2 83 1.5 NNE 15 19 8 10 1028.8 1028.8 0.0

Other Formats:

Comma delimited format used in spreadsheet applications
http://www.bom.gov.au/fwo/IDT60801/IDT60801.95960.axf

JavaScript Object Notation format (JSON) in row-major order
http://www.bom.gov.au/fwo/IDT60801/IDT60801.95960.json